sensor_id;sensor_type;location;lat;lon;timestamp;P1;durP1;ratioP1;P2;durP2;ratioP2
17566;SDS011;8901;52.088;5.084;2022-09-09T00:00:56;8.98;;;8.38;;
17566;SDS011;8901;52.088;5.084;2022-09-09T00:03:31;8.73;;;8.15;;
17566;SDS011;8901;52.088;5.084;2022-09-09T00:06:06;8.30;;;7.70;;
17566;SDS011;8901;52.088;5.084;2022-09-09T00:08:41;9.10;;;8.32;;
17566;SDS011;8901;52.088;5.084;2022-09-09T00:11:19;9.57;;;8.70;;
17566;SDS011;8901;52.088;5.084;2022-09-09T00:13:52;9.32;;;8.73;;
17566;SDS011;8901;52.088;5.084;2022-09-09T00:16:22;9.80;;;9.00;;
17566;SDS011;8901;52.088;5.084;2022-09-09T00:18:55;9.82;;;9.15;;
17566;SDS011;8901;52.088;5.084;2022-09-09T00:21:30;10.20;;;9.50;;
17566;SDS011;8901;52.088;5.084;2022-09-09T00:24:04;9.88;;;9.07;;
17566;SDS011;8901;52.088;5.084;2022-09-09T00:26:40;8.40;;;7.80;;
17566;SDS011;8901;52.088;5.084;2022-09-09T00:29:13;8.68;;;8.07;;
17566;SDS011;8901;52.088;5.084;2022-09-09T00:31:48;8.57;;;8.07;;
17566;SDS011;8901;52.088;5.084;2022-09-09T00:34:18;9.38;;;8.63;;
17566;SDS011;8901;52.088;5.084;2022-09-09T00:36:47;9.60;;;8.93;;
17566;SDS011;8901;52.088;5.084;2022-09-09T00:39:23;9.55;;;8.90;;
17566;SDS011;8901;52.088;5.084;2022-09-09T00:41:58;8.93;;;8.32;;
17566;SDS011;8901;52.088;5.084;2022-09-09T00:44:36;10.27;;;9.57;;
17566;SDS011;8901;52.088;5.084;2022-09-09T00:47:09;9.70;;;9.10;;
17566;SDS011;8901;52.088;5.084;2022-09-09T00:49:50;9.93;;;9.02;;
17566;SDS011;8901;52.088;5.084;2022-09-09T00:52:27;9.90;;;9.20;;
17566;SDS011;8901;52.088;5.084;2022-09-09T00:55:07;9.48;;;8.77;;
17566;SDS011;8901;52.088;5.084;2022-09-09T00:57:40;9.30;;;8.77;;
17566;SDS011;8901;52.088;5.084;2022-09-09T01:00:17;9.70;;;9.00;;
17566;SDS011;8901;52.088;5.084;2022-09-09T01:02:53;9.95;;;9.27;;
17566;SDS011;8901;52.088;5.084;2022-09-09T01:05:46;9.57;;;8.98;;
17566;SDS011;8901;52.088;5.084;2022-09-09T01:08:25;9.60;;;9.00;;
17566;SDS011;8901;52.088;5.084;2022-09-09T01:11:05;10.45;;;9.65;;
17566;SDS011;8901;52.088;5.084;2022-09-09T01:13:41;9.25;;;8.55;;
17566;SDS011;8901;52.088;5.084;2022-09-09T01:16:11;9.45;;;8.70;;
17566;SDS011;8901;52.088;5.084;2022-09-09T01:18:40;10.30;;;9.20;;
17566;SDS011;8901;52.088;5.084;2022-09-09T01:21:14;9.18;;;8.40;;
17566;SDS011;8901;52.088;5.084;2022-09-09T01:23:53;9.90;;;9.10;;
17566;SDS011;8901;52.088;5.084;2022-09-09T01:26:41;10.40;;;9.73;;
17566;SDS011;8901;52.088;5.084;2022-09-09T01:29:09;9.98;;;9.25;;
17566;SDS011;8901;52.088;5.084;2022-09-09T01:31:38;10.35;;;9.55;;
17566;SDS011;8901;52.088;5.084;2022-09-09T01:34:09;11.18;;;10.43;;
17566;SDS011;8901;52.088;5.084;2022-09-09T01:36:38;10.35;;;9.65;;
17566;SDS011;8901;52.088;5.084;2022-09-09T01:39:08;11.15;;;10.15;;
17566;SDS011;8901;52.088;5.084;2022-09-09T01:41:35;11.27;;;10.38;;
17566;SDS011;8901;52.088;5.084;2022-09-09T01:44:04;10.43;;;9.73;;
17566;SDS011;8901;52.088;5.084;2022-09-09T01:46:32;11.20;;;10.40;;
17566;SDS011;8901;52.088;5.084;2022-09-09T01:48:59;11.38;;;10.48;;
17566;SDS011;8901;52.088;5.084;2022-09-09T01:51:28;11.48;;;10.70;;
17566;SDS011;8901;52.088;5.084;2022-09-09T01:53:55;12.15;;;11.25;;
17566;SDS011;8901;52.088;5.084;2022-09-09T01:56:25;11.63;;;10.82;;
17566;SDS011;8901;52.088;5.084;2022-09-09T01:59:05;11.38;;;10.57;;
17566;SDS011;8901;52.088;5.084;2022-09-09T02:01:42;10.73;;;10.02;;
17566;SDS011;8901;52.088;5.084;2022-09-09T02:04:23;11.32;;;10.52;;
17566;SDS011;8901;52.088;5.084;2022-09-09T02:07:00;11.38;;;10.40;;
17566;SDS011;8901;52.088;5.084;2022-09-09T02:09:28;12.63;;;11.48;;
17566;SDS011;8901;52.088;5.084;2022-09-09T02:11:57;11.50;;;10.70;;
17566;SDS011;8901;52.088;5.084;2022-09-09T02:14:34;13.07;;;11.90;;
17566;SDS011;8901;52.088;5.084;2022-09-09T02:17:06;12.98;;;12.05;;
17566;SDS011;8901;52.088;5.084;2022-09-09T02:19:36;12.52;;;11.73;;
17566;SDS011;8901;52.088;5.084;2022-09-09T02:22:07;13.30;;;12.25;;
17566;SDS011;8901;52.088;5.084;2022-09-09T02:24:34;12.95;;;12.05;;
17566;SDS011;8901;52.088;5.084;2022-09-09T02:27:04;11.95;;;11.07;;
17566;SDS011;8901;52.088;5.084;2022-09-09T02:29:36;12.38;;;11.48;;
17566;SDS011;8901;52.088;5.084;2022-09-09T02:32:06;12.15;;;11.25;;
17566;SDS011;8901;52.088;5.084;2022-09-09T02:34:35;13.15;;;11.95;;
17566;SDS011;8901;52.088;5.084;2022-09-09T02:37:06;11.60;;;10.88;;
17566;SDS011;8901;52.088;5.084;2022-09-09T02:39:34;12.38;;;11.38;;
17566;SDS011;8901;52.088;5.084;2022-09-09T02:42:01;12.10;;;11.30;;
17566;SDS011;8901;52.088;5.084;2022-09-09T02:44:29;12.27;;;11.05;;
17566;SDS011;8901;52.088;5.084;2022-09-09T02:47:02;11.85;;;10.85;;
17566;SDS011;8901;52.088;5.084;2022-09-09T02:49:42;12.80;;;11.80;;
17566;SDS011;8901;52.088;5.084;2022-09-09T02:52:16;12.00;;;11.10;;
17566;SDS011;8901;52.088;5.084;2022-09-09T02:54:48;11.43;;;10.70;;
17566;SDS011;8901;52.088;5.084;2022-09-09T02:57:22;11.85;;;10.95;;
17566;SDS011;8901;52.088;5.084;2022-09-09T02:59:56;12.60;;;11.57;;
17566;SDS011;8901;52.088;5.084;2022-09-09T03:02:27;12.07;;;11.07;;
17566;SDS011;8901;52.088;5.084;2022-09-09T03:04:53;11.80;;;10.82;;
17566;SDS011;8901;52.088;5.084;2022-09-09T03:07:20;12.63;;;11.60;;
17566;SDS011;8901;52.088;5.084;2022-09-09T03:09:48;12.65;;;11.75;;
17566;SDS011;8901;52.088;5.084;2022-09-09T03:12:14;12.63;;;11.82;;
17566;SDS011;8901;52.088;5.084;2022-09-09T03:14:41;12.90;;;12.05;;
17566;SDS011;8901;52.088;5.084;2022-09-09T03:17:10;13.02;;;12.10;;
17566;SDS011;8901;52.088;5.084;2022-09-09T03:19:38;13.95;;;12.95;;
17566;SDS011;8901;52.088;5.084;2022-09-09T03:22:06;14.15;;;13.00;;
17566;SDS011;8901;52.088;5.084;2022-09-09T03:24:34;13.93;;;12.82;;
17566;SDS011;8901;52.088;5.084;2022-09-09T03:27:01;13.30;;;12.40;;
17566;SDS011;8901;52.088;5.084;2022-09-09T03:32:31;14.20;;;12.88;;
17566;SDS011;8901;52.088;5.084;2022-09-09T03:34:59;13.90;;;12.70;;
17566;SDS011;8901;52.088;5.084;2022-09-09T03:37:26;14.00;;;12.90;;
17566;SDS011;8901;52.088;5.084;2022-09-09T03:39:53;13.80;;;12.63;;
17566;SDS011;8901;52.088;5.084;2022-09-09T03:42:20;13.93;;;12.77;;
17566;SDS011;8901;52.088;5.084;2022-09-09T03:44:47;13.63;;;12.40;;
17566;SDS011;8901;52.088;5.084;2022-09-09T03:47:16;13.90;;;12.55;;
17566;SDS011;8901;52.088;5.084;2022-09-09T03:49:44;13.55;;;12.30;;
17566;SDS011;8901;52.088;5.084;2022-09-09T03:52:13;13.15;;;12.05;;
17566;SDS011;8901;52.088;5.084;2022-09-09T03:54:41;12.18;;;11.27;;
17566;SDS011;8901;52.088;5.084;2022-09-09T03:57:08;12.40;;;11.40;;
17566;SDS011;8901;52.088;5.084;2022-09-09T04:03:09;11.90;;;11.00;;
17566;SDS011;8901;52.088;5.084;2022-09-09T04:05:36;11.40;;;10.50;;
17566;SDS011;8901;52.088;5.084;2022-09-09T04:08:06;10.98;;;10.10;;
17566;SDS011;8901;52.088;5.084;2022-09-09T04:10:33;11.20;;;10.40;;
17566;SDS011;8901;52.088;5.084;2022-09-09T04:13:02;11.77;;;10.88;;
17566;SDS011;8901;52.088;5.084;2022-09-09T04:18:31;11.80;;;10.95;;
17566;SDS011;8901;52.088;5.084;2022-09-09T04:23:46;10.90;;;10.10;;
17566;SDS011;8901;52.088;5.084;2022-09-09T04:26:13;10.10;;;9.40;;
17566;SDS011;8901;52.088;5.084;2022-09-09T04:28:40;10.82;;;9.93;;
17566;SDS011;8901;52.088;5.084;2022-09-09T04:31:07;11.15;;;10.38;;
17566;SDS011;8901;52.088;5.084;2022-09-09T04:33:42;11.63;;;10.73;;
17566;SDS011;8901;52.088;5.084;2022-09-09T04:36:09;11.45;;;10.55;;
17566;SDS011;8901;52.088;5.084;2022-09-09T04:38:35;11.63;;;10.70;;
17566;SDS011;8901;52.088;5.084;2022-09-09T04:41:04;12.98;;;11.90;;
17566;SDS011;8901;52.088;5.084;2022-09-09T04:43:32;11.45;;;10.65;;
17566;SDS011;8901;52.088;5.084;2022-09-09T04:45:59;12.27;;;11.25;;
17566;SDS011;8901;52.088;5.084;2022-09-09T04:48:26;11.60;;;10.70;;
17566;SDS011;8901;52.088;5.084;2022-09-09T04:50:53;10.85;;;9.82;;
17566;SDS011;8901;52.088;5.084;2022-09-09T04:53:21;10.60;;;9.70;;
17566;SDS011;8901;52.088;5.084;2022-09-09T04:55:51;10.65;;;9.82;;
17566;SDS011;8901;52.088;5.084;2022-09-09T04:58:19;10.20;;;9.30;;
17566;SDS011;8901;52.088;5.084;2022-09-09T05:00:48;9.85;;;9.05;;
17566;SDS011;8901;52.088;5.084;2022-09-09T05:03:16;10.38;;;9.52;;
17566;SDS011;8901;52.088;5.084;2022-09-09T05:05:44;9.60;;;8.75;;
17566;SDS011;8901;52.088;5.084;2022-09-09T05:08:11;9.00;;;8.35;;
17566;SDS011;8901;52.088;5.084;2022-09-09T05:10:38;9.75;;;8.80;;
17566;SDS011;8901;52.088;5.084;2022-09-09T05:13:06;10.35;;;9.55;;
17566;SDS011;8901;52.088;5.084;2022-09-09T05:15:35;10.70;;;9.75;;
17566;SDS011;8901;52.088;5.084;2022-09-09T05:18:02;10.18;;;9.32;;
17566;SDS011;8901;52.088;5.084;2022-09-09T05:20:29;11.73;;;10.32;;
17566;SDS011;8901;52.088;5.084;2022-09-09T05:22:56;10.98;;;9.93;;
17566;SDS011;8901;52.088;5.084;2022-09-09T05:25:23;11.65;;;9.60;;
17566;SDS011;8901;52.088;5.084;2022-09-09T05:27:51;10.77;;;9.68;;
17566;SDS011;8901;52.088;5.084;2022-09-09T05:30:18;10.07;;;9.13;;
17566;SDS011;8901;52.088;5.084;2022-09-09T05:32:46;10.30;;;9.30;;
17566;SDS011;8901;52.088;5.084;2022-09-09T05:35:14;9.80;;;8.80;;
17566;SDS011;8901;52.088;5.084;2022-09-09T05:37:41;9.38;;;8.52;;
17566;SDS011;8901;52.088;5.084;2022-09-09T05:40:08;9.35;;;8.73;;
17566;SDS011;8901;52.088;5.084;2022-09-09T05:42:35;10.57;;;9.25;;
17566;SDS011;8901;52.088;5.084;2022-09-09T05:45:04;9.43;;;8.48;;
17566;SDS011;8901;52.088;5.084;2022-09-09T05:47:32;8.10;;;7.30;;
17566;SDS011;8901;52.088;5.084;2022-09-09T05:50:00;9.40;;;8.32;;
17566;SDS011;8901;52.088;5.084;2022-09-09T05:52:27;13.35;;;8.20;;
17566;SDS011;8901;52.088;5.084;2022-09-09T05:54:54;9.02;;;8.32;;
17566;SDS011;8901;52.088;5.084;2022-09-09T05:57:22;9.18;;;8.05;;
17566;SDS011;8901;52.088;5.084;2022-09-09T05:59:48;8.07;;;7.47;;
17566;SDS011;8901;52.088;5.084;2022-09-09T06:02:15;7.95;;;7.28;;
17566;SDS011;8901;52.088;5.084;2022-09-09T06:04:42;8.38;;;7.43;;
17566;SDS011;8901;52.088;5.084;2022-09-09T06:07:10;18.33;;;7.80;;
17566;SDS011;8901;52.088;5.084;2022-09-09T06:09:39;9.18;;;7.20;;
17566;SDS011;8901;52.088;5.084;2022-09-09T06:12:06;8.20;;;6.63;;
17566;SDS011;8901;52.088;5.084;2022-09-09T06:17:34;8.48;;;7.05;;
17566;SDS011;8901;52.088;5.084;2022-09-09T06:20:01;6.95;;;6.18;;
17566;SDS011;8901;52.088;5.084;2022-09-09T06:22:32;5.80;;;4.72;;
17566;SDS011;8901;52.088;5.084;2022-09-09T06:24:59;7.63;;;5.25;;
17566;SDS011;8901;52.088;5.084;2022-09-09T06:27:26;7.80;;;6.28;;
17566;SDS011;8901;52.088;5.084;2022-09-09T06:29:53;6.15;;;5.55;;
17566;SDS011;8901;52.088;5.084;2022-09-09T06:32:20;14.90;;;6.85;;
17566;SDS011;8901;52.088;5.084;2022-09-09T06:34:47;7.15;;;6.55;;
17566;SDS011;8901;52.088;5.084;2022-09-09T06:37:14;7.68;;;6.90;;
17566;SDS011;8901;52.088;5.084;2022-09-09T06:39:42;9.70;;;7.50;;
17566;SDS011;8901;52.088;5.084;2022-09-09T06:42:09;6.93;;;6.32;;
17566;SDS011;8901;52.088;5.084;2022-09-09T06:44:36;8.18;;;6.70;;
17566;SDS011;8901;52.088;5.084;2022-09-09T06:47:02;10.57;;;5.60;;
17566;SDS011;8901;52.088;5.084;2022-09-09T06:49:30;8.57;;;6.03;;
17566;SDS011;8901;52.088;5.084;2022-09-09T06:51:57;9.02;;;6.18;;
17566;SDS011;8901;52.088;5.084;2022-09-09T06:54:24;6.78;;;6.18;;
17566;SDS011;8901;52.088;5.084;2022-09-09T06:56:52;7.07;;;5.93;;
17566;SDS011;8901;52.088;5.084;2022-09-09T06:59:19;8.25;;;6.65;;
17566;SDS011;8901;52.088;5.084;2022-09-09T07:01:46;7.95;;;5.80;;
17566;SDS011;8901;52.088;5.084;2022-09-09T07:04:13;8.15;;;5.22;;
17566;SDS011;8901;52.088;5.084;2022-09-09T07:06:40;8.35;;;6.03;;
17566;SDS011;8901;52.088;5.084;2022-09-09T07:09:09;6.30;;;5.68;;
17566;SDS011;8901;52.088;5.084;2022-09-09T07:11:37;7.50;;;5.60;;
17566;SDS011;8901;52.088;5.084;2022-09-09T07:14:08;7.30;;;5.47;;
17566;SDS011;8901;52.088;5.084;2022-09-09T07:16:37;11.30;;;6.63;;
17566;SDS011;8901;52.088;5.084;2022-09-09T07:19:04;7.53;;;6.75;;
17566;SDS011;8901;52.088;5.084;2022-09-09T07:21:32;7.40;;;5.82;;
17566;SDS011;8901;52.088;5.084;2022-09-09T07:23:59;9.20;;;5.95;;
17566;SDS011;8901;52.088;5.084;2022-09-09T07:26:27;10.18;;;6.70;;
17566;SDS011;8901;52.088;5.084;2022-09-09T07:28:56;6.55;;;5.78;;
17566;SDS011;8901;52.088;5.084;2022-09-09T07:31:24;9.82;;;6.07;;
17566;SDS011;8901;52.088;5.084;2022-09-09T07:33:52;10.30;;;6.72;;
17566;SDS011;8901;52.088;5.084;2022-09-09T07:36:20;8.70;;;7.72;;
17566;SDS011;8901;52.088;5.084;2022-09-09T07:38:48;8.95;;;7.28;;
17566;SDS011;8901;52.088;5.084;2022-09-09T07:41:18;8.15;;;7.32;;
17566;SDS011;8901;52.088;5.084;2022-09-09T07:43:47;8.45;;;6.88;;
17566;SDS011;8901;52.088;5.084;2022-09-09T07:46:16;7.00;;;6.15;;
17566;SDS011;8901;52.088;5.084;2022-09-09T07:48:45;10.77;;;7.53;;
17566;SDS011;8901;52.088;5.084;2022-09-09T07:51:16;10.85;;;6.05;;
17566;SDS011;8901;52.088;5.084;2022-09-09T07:53:44;6.60;;;5.70;;
17566;SDS011;8901;52.088;5.084;2022-09-09T07:56:13;8.95;;;6.43;;
17566;SDS011;8901;52.088;5.084;2022-09-09T07:58:41;9.98;;;6.72;;
17566;SDS011;8901;52.088;5.084;2022-09-09T08:01:12;8.73;;;6.78;;
17566;SDS011;8901;52.088;5.084;2022-09-09T08:03:41;9.00;;;6.53;;
17566;SDS011;8901;52.088;5.084;2022-09-09T08:06:10;10.27;;;7.30;;
17566;SDS011;8901;52.088;5.084;2022-09-09T08:08:38;8.35;;;7.55;;
17566;SDS011;8901;52.088;5.084;2022-09-09T08:11:08;7.72;;;7.10;;
17566;SDS011;8901;52.088;5.084;2022-09-09T08:13:37;9.07;;;7.10;;
17566;SDS011;8901;52.088;5.084;2022-09-09T08:16:06;10.45;;;7.10;;
17566;SDS011;8901;52.088;5.084;2022-09-09T08:18:34;7.53;;;6.68;;
17566;SDS011;8901;52.088;5.084;2022-09-09T08:21:08;8.10;;;7.20;;
17566;SDS011;8901;52.088;5.084;2022-09-09T08:23:38;8.57;;;6.47;;
17566;SDS011;8901;52.088;5.084;2022-09-09T08:26:06;9.25;;;6.43;;
17566;SDS011;8901;52.088;5.084;2022-09-09T08:28:35;11.75;;;6.78;;
17566;SDS011;8901;52.088;5.084;2022-09-09T08:31:09;7.78;;;6.63;;
17566;SDS011;8901;52.088;5.084;2022-09-09T08:33:37;7.07;;;5.82;;
17566;SDS011;8901;52.088;5.084;2022-09-09T08:36:05;7.85;;;5.97;;
17566;SDS011;8901;52.088;5.084;2022-09-09T08:38:35;10.02;;;5.88;;
17566;SDS011;8901;52.088;5.084;2022-09-09T08:41:07;9.93;;;5.30;;
17566;SDS011;8901;52.088;5.084;2022-09-09T08:43:45;9.30;;;5.63;;
17566;SDS011;8901;52.088;5.084;2022-09-09T08:46:14;7.75;;;5.65;;
17566;SDS011;8901;52.088;5.084;2022-09-09T08:48:51;8.90;;;5.65;;
17566;SDS011;8901;52.088;5.084;2022-09-09T08:51:24;13.35;;;6.97;;
17566;SDS011;8901;52.088;5.084;2022-09-09T08:53:53;9.43;;;5.80;;
17566;SDS011;8901;52.088;5.084;2022-09-09T08:56:24;12.32;;;6.30;;
17566;SDS011;8901;52.088;5.084;2022-09-09T08:58:54;8.00;;;6.50;;
17566;SDS011;8901;52.088;5.084;2022-09-09T09:01:26;10.68;;;6.15;;
17566;SDS011;8901;52.088;5.084;2022-09-09T09:04:07;7.13;;;6.13;;
17566;SDS011;8901;52.088;5.084;2022-09-09T09:06:48;7.53;;;5.65;;
17566;SDS011;8901;52.088;5.084;2022-09-09T09:09:21;7.15;;;4.97;;
17566;SDS011;8901;52.088;5.084;2022-09-09T09:11:57;8.38;;;5.75;;
17566;SDS011;8901;52.088;5.084;2022-09-09T09:14:26;7.93;;;6.10;;
17566;SDS011;8901;52.088;5.084;2022-09-09T09:16:56;9.45;;;5.43;;
17566;SDS011;8901;52.088;5.084;2022-09-09T09:19:26;12.07;;;6.72;;
17566;SDS011;8901;52.088;5.084;2022-09-09T09:21:56;7.53;;;5.68;;
17566;SDS011;8901;52.088;5.084;2022-09-09T09:24:34;9.68;;;6.20;;
17566;SDS011;8901;52.088;5.084;2022-09-09T09:27:13;7.50;;;6.05;;
17566;SDS011;8901;52.088;5.084;2022-09-09T09:29:42;7.88;;;6.85;;
17566;SDS011;8901;52.088;5.084;2022-09-09T09:32:11;12.55;;;7.18;;
17566;SDS011;8901;52.088;5.084;2022-09-09T09:34:47;9.15;;;7.70;;
17566;SDS011;8901;52.088;5.084;2022-09-09T09:37:16;7.93;;;6.45;;
17566;SDS011;8901;52.088;5.084;2022-09-09T09:39:53;10.57;;;6.90;;
17566;SDS011;8901;52.088;5.084;2022-09-09T09:42:21;7.93;;;6.38;;
17566;SDS011;8901;52.088;5.084;2022-09-09T09:44:49;8.23;;;5.80;;
17566;SDS011;8901;52.088;5.084;2022-09-09T09:47:17;8.75;;;5.60;;
17566;SDS011;8901;52.088;5.084;2022-09-09T09:49:51;12.07;;;6.38;;
17566;SDS011;8901;52.088;5.084;2022-09-09T09:52:20;8.18;;;6.07;;
17566;SDS011;8901;52.088;5.084;2022-09-09T09:54:50;7.13;;;6.40;;
17566;SDS011;8901;52.088;5.084;2022-09-09T09:57:18;9.25;;;5.97;;
17566;SDS011;8901;52.088;5.084;2022-09-09T10:00:00;8.30;;;5.78;;
17566;SDS011;8901;52.088;5.084;2022-09-09T10:02:36;7.45;;;5.35;;
17566;SDS011;8901;52.088;5.084;2022-09-09T10:05:06;6.40;;;5.45;;
17566;SDS011;8901;52.088;5.084;2022-09-09T10:07:40;6.30;;;5.10;;
17566;SDS011;8901;52.088;5.084;2022-09-09T10:10:09;8.45;;;6.40;;
17566;SDS011;8901;52.088;5.084;2022-09-09T10:12:45;8.30;;;6.00;;
17566;SDS011;8901;52.088;5.084;2022-09-09T10:15:27;9.02;;;4.45;;
17566;SDS011;8901;52.088;5.084;2022-09-09T10:18:04;10.10;;;4.88;;
17566;SDS011;8901;52.088;5.084;2022-09-09T10:20:42;5.55;;;4.25;;
17566;SDS011;8901;52.088;5.084;2022-09-09T10:23:21;6.97;;;4.60;;
17566;SDS011;8901;52.088;5.084;2022-09-09T10:26:06;8.52;;;4.55;;
17566;SDS011;8901;52.088;5.084;2022-09-09T10:28:55;6.05;;;4.00;;
17566;SDS011;8901;52.088;5.084;2022-09-09T10:31:34;5.93;;;4.40;;
17566;SDS011;8901;52.088;5.084;2022-09-09T10:34:12;10.55;;;4.20;;
17566;SDS011;8901;52.088;5.084;2022-09-09T10:36:46;8.95;;;4.13;;
17566;SDS011;8901;52.088;5.084;2022-09-09T10:39:17;7.50;;;4.78;;
17566;SDS011;8901;52.088;5.084;2022-09-09T10:42:01;6.10;;;4.63;;
17566;SDS011;8901;52.088;5.084;2022-09-09T10:44:39;8.57;;;4.18;;
17566;SDS011;8901;52.088;5.084;2022-09-09T10:47:33;6.15;;;3.97;;
17566;SDS011;8901;52.088;5.084;2022-09-09T10:50:14;6.75;;;4.10;;
17566;SDS011;8901;52.088;5.084;2022-09-09T10:52:53;6.43;;;3.97;;
17566;SDS011;8901;52.088;5.084;2022-09-09T10:55:28;4.88;;;4.13;;
17566;SDS011;8901;52.088;5.084;2022-09-09T10:58:02;8.07;;;3.90;;
17566;SDS011;8901;52.088;5.084;2022-09-09T11:00:37;6.95;;;3.80;;
17566;SDS011;8901;52.088;5.084;2022-09-09T11:03:10;7.57;;;3.55;;
17566;SDS011;8901;52.088;5.084;2022-09-09T11:05:45;6.28;;;3.35;;
17566;SDS011;8901;52.088;5.084;2022-09-09T11:08:17;5.70;;;3.55;;
17566;SDS011;8901;52.088;5.084;2022-09-09T11:10:46;6.75;;;3.53;;
17566;SDS011;8901;52.088;5.084;2022-09-09T11:13:21;5.28;;;3.50;;
17566;SDS011;8901;52.088;5.084;2022-09-09T11:15:54;5.70;;;3.55;;
17566;SDS011;8901;52.088;5.084;2022-09-09T11:18:26;7.03;;;3.88;;
17566;SDS011;8901;52.088;5.084;2022-09-09T11:20:58;4.90;;;3.42;;
17566;SDS011;8901;52.088;5.084;2022-09-09T11:23:30;6.60;;;3.33;;
17566;SDS011;8901;52.088;5.084;2022-09-09T11:26:05;6.28;;;3.40;;
17566;SDS011;8901;52.088;5.084;2022-09-09T11:28:38;6.30;;;3.10;;
17566;SDS011;8901;52.088;5.084;2022-09-09T11:31:26;7.43;;;3.15;;
17566;SDS011;8901;52.088;5.084;2022-09-09T11:34:08;8.80;;;2.67;;
17566;SDS011;8901;52.088;5.084;2022-09-09T11:37:16;6.47;;;2.88;;
17566;SDS011;8901;52.088;5.084;2022-09-09T11:39:57;6.15;;;2.58;;
17566;SDS011;8901;52.088;5.084;2022-09-09T11:42:34;5.95;;;2.80;;
17566;SDS011;8901;52.088;5.084;2022-09-09T11:45:08;8.30;;;3.25;;
17566;SDS011;8901;52.088;5.084;2022-09-09T11:47:39;7.00;;;2.40;;
17566;SDS011;8901;52.088;5.084;2022-09-09T11:50:09;4.97;;;2.47;;
17566;SDS011;8901;52.088;5.084;2022-09-09T11:53:02;5.15;;;2.38;;
17566;SDS011;8901;52.088;5.084;2022-09-09T11:55:47;5.15;;;2.55;;
17566;SDS011;8901;52.088;5.084;2022-09-09T11:58:26;9.35;;;3.28;;
17566;SDS011;8901;52.088;5.084;2022-09-09T12:00:58;6.40;;;2.20;;
17566;SDS011;8901;52.088;5.084;2022-09-09T12:03:36;4.25;;;2.20;;
17566;SDS011;8901;52.088;5.084;2022-09-09T12:06:09;5.80;;;2.35;;
17566;SDS011;8901;52.088;5.084;2022-09-09T12:08:50;4.22;;;2.40;;
17566;SDS011;8901;52.088;5.084;2022-09-09T12:11:26;5.95;;;2.45;;
17566;SDS011;8901;52.088;5.084;2022-09-09T12:13:56;5.28;;;2.38;;
17566;SDS011;8901;52.088;5.084;2022-09-09T12:16:28;5.10;;;2.78;;
17566;SDS011;8901;52.088;5.084;2022-09-09T12:19:04;5.70;;;2.50;;
17566;SDS011;8901;52.088;5.084;2022-09-09T12:21:34;5.55;;;2.72;;
17566;SDS011;8901;52.088;5.084;2022-09-09T12:24:07;5.50;;;2.58;;
17566;SDS011;8901;52.088;5.084;2022-09-09T12:26:37;3.97;;;2.63;;
17566;SDS011;8901;52.088;5.084;2022-09-09T12:29:13;4.88;;;2.50;;
17566;SDS011;8901;52.088;5.084;2022-09-09T12:31:51;5.13;;;2.70;;
17566;SDS011;8901;52.088;5.084;2022-09-09T12:34:36;5.90;;;2.60;;
17566;SDS011;8901;52.088;5.084;2022-09-09T12:37:08;9.20;;;2.95;;
17566;SDS011;8901;52.088;5.084;2022-09-09T12:39:43;4.93;;;3.00;;
17566;SDS011;8901;52.088;5.084;2022-09-09T12:42:15;5.40;;;2.65;;
17566;SDS011;8901;52.088;5.084;2022-09-09T12:44:50;8.25;;;2.75;;
17566;SDS011;8901;52.088;5.084;2022-09-09T12:47:22;5.63;;;2.20;;
17566;SDS011;8901;52.088;5.084;2022-09-09T12:49:55;5.57;;;2.80;;
17566;SDS011;8901;52.088;5.084;2022-09-09T12:52:24;6.03;;;2.70;;
17566;SDS011;8901;52.088;5.084;2022-09-09T12:54:59;5.50;;;2.30;;
17566;SDS011;8901;52.088;5.084;2022-09-09T12:57:32;5.78;;;2.58;;
17566;SDS011;8901;52.088;5.084;2022-09-09T13:02:50;4.93;;;2.33;;
17566;SDS011;8901;52.088;5.084;2022-09-09T13:05:21;4.57;;;2.53;;
17566;SDS011;8901;52.088;5.084;2022-09-09T13:07:49;4.93;;;2.58;;
17566;SDS011;8901;52.088;5.084;2022-09-09T13:10:20;6.63;;;3.42;;
17566;SDS011;8901;52.088;5.084;2022-09-09T13:12:51;5.32;;;2.72;;
17566;SDS011;8901;52.088;5.084;2022-09-09T13:15:36;5.88;;;2.78;;
17566;SDS011;8901;52.088;5.084;2022-09-09T13:18:04;4.85;;;3.08;;
17566;SDS011;8901;52.088;5.084;2022-09-09T13:20:38;5.88;;;2.67;;
17566;SDS011;8901;52.088;5.084;2022-09-09T13:23:13;3.17;;;2.65;;
17566;SDS011;8901;52.088;5.084;2022-09-09T13:25:42;6.45;;;3.10;;
17566;SDS011;8901;52.088;5.084;2022-09-09T13:28:20;3.65;;;2.75;;
17566;SDS011;8901;52.088;5.084;2022-09-09T13:30:55;5.43;;;2.80;;
17566;SDS011;8901;52.088;5.084;2022-09-09T13:33:29;4.38;;;2.58;;
17566;SDS011;8901;52.088;5.084;2022-09-09T13:36:00;5.63;;;2.63;;
17566;SDS011;8901;52.088;5.084;2022-09-09T13:38:29;5.47;;;3.30;;
17566;SDS011;8901;52.088;5.084;2022-09-09T13:41:00;7.22;;;3.00;;
17566;SDS011;8901;52.088;5.084;2022-09-09T13:43:29;7.50;;;3.20;;
17566;SDS011;8901;52.088;5.084;2022-09-09T13:46:00;5.03;;;2.88;;
17566;SDS011;8901;52.088;5.084;2022-09-09T13:48:28;8.95;;;3.22;;
17566;SDS011;8901;52.088;5.084;2022-09-09T13:50:58;3.53;;;2.72;;
17566;SDS011;8901;52.088;5.084;2022-09-09T13:53:28;5.57;;;3.08;;
17566;SDS011;8901;52.088;5.084;2022-09-09T13:58:27;7.10;;;3.05;;
17566;SDS011;8901;52.088;5.084;2022-09-09T14:00:55;5.30;;;2.75;;
17566;SDS011;8901;52.088;5.084;2022-09-09T14:03:22;3.25;;;2.30;;
17566;SDS011;8901;52.088;5.084;2022-09-09T14:08:24;4.65;;;2.80;;
17566;SDS011;8901;52.088;5.084;2022-09-09T14:10:53;4.25;;;2.63;;
17566;SDS011;8901;52.088;5.084;2022-09-09T14:13:20;9.18;;;3.05;;
17566;SDS011;8901;52.088;5.084;2022-09-09T14:15:48;7.55;;;3.15;;
17566;SDS011;8901;52.088;5.084;2022-09-09T14:18:15;6.68;;;3.38;;
17566;SDS011;8901;52.088;5.084;2022-09-09T14:20:49;5.80;;;3.13;;
17566;SDS011;8901;52.088;5.084;2022-09-09T14:23:16;6.55;;;3.13;;
17566;SDS011;8901;52.088;5.084;2022-09-09T14:25:45;5.72;;;2.78;;
17566;SDS011;8901;52.088;5.084;2022-09-09T14:28:12;5.38;;;2.75;;
17566;SDS011;8901;52.088;5.084;2022-09-09T14:30:40;4.25;;;2.38;;
17566;SDS011;8901;52.088;5.084;2022-09-09T14:33:08;6.47;;;2.90;;
17566;SDS011;8901;52.088;5.084;2022-09-09T14:35:37;5.15;;;2.63;;
17566;SDS011;8901;52.088;5.084;2022-09-09T14:38:06;4.53;;;2.78;;
17566;SDS011;8901;52.088;5.084;2022-09-09T14:40:34;4.63;;;2.20;;
17566;SDS011;8901;52.088;5.084;2022-09-09T14:43:03;3.58;;;1.98;;
17566;SDS011;8901;52.088;5.084;2022-09-09T14:45:30;5.68;;;2.17;;
17566;SDS011;8901;52.088;5.084;2022-09-09T14:47:58;3.10;;;1.90;;
17566;SDS011;8901;52.088;5.084;2022-09-09T14:50:25;3.90;;;1.80;;
17566;SDS011;8901;52.088;5.084;2022-09-09T14:52:52;2.90;;;2.10;;
17566;SDS011;8901;52.088;5.084;2022-09-09T14:55:19;4.25;;;1.98;;
17566;SDS011;8901;52.088;5.084;2022-09-09T14:57:46;3.10;;;1.90;;
17566;SDS011;8901;52.088;5.084;2022-09-09T15:00:16;3.42;;;2.40;;
17566;SDS011;8901;52.088;5.084;2022-09-09T15:02:43;6.13;;;2.60;;
17566;SDS011;8901;52.088;5.084;2022-09-09T15:05:10;3.65;;;2.13;;
17566;SDS011;8901;52.088;5.084;2022-09-09T15:10:25;3.85;;;2.47;;
17566;SDS011;8901;52.088;5.084;2022-09-09T15:12:53;4.20;;;2.70;;
17566;SDS011;8901;52.088;5.084;2022-09-09T15:15:23;4.63;;;2.95;;
17566;SDS011;8901;52.088;5.084;2022-09-09T15:17:51;6.25;;;2.83;;
17566;SDS011;8901;52.088;5.084;2022-09-09T15:20:19;4.20;;;2.47;;
17566;SDS011;8901;52.088;5.084;2022-09-09T15:22:48;3.05;;;2.50;;
17566;SDS011;8901;52.088;5.084;2022-09-09T15:25:15;4.95;;;2.90;;
17566;SDS011;8901;52.088;5.084;2022-09-09T15:27:43;3.42;;;2.50;;
17566;SDS011;8901;52.088;5.084;2022-09-09T15:30:10;3.83;;;2.50;;
17566;SDS011;8901;52.088;5.084;2022-09-09T15:32:39;3.58;;;2.38;;
17566;SDS011;8901;52.088;5.084;2022-09-09T15:35:06;3.67;;;2.03;;
17566;SDS011;8901;52.088;5.084;2022-09-09T15:37:34;3.33;;;1.85;;
17566;SDS011;8901;52.088;5.084;2022-09-09T15:40:01;3.03;;;1.98;;
17566;SDS011;8901;52.088;5.084;2022-09-09T15:42:28;3.75;;;2.35;;
17566;SDS011;8901;52.088;5.084;2022-09-09T15:44:55;4.30;;;2.22;;